sensor_id;sensor_type;location;lat;lon;timestamp;P1;durP1;ratioP1;P2;durP2;ratioP2
34278;SDS011;20538;51.528;9.942;2023-07-02T00:02:21;7.43;;;4.40;;
34278;SDS011;20538;51.528;9.942;2023-07-02T00:04:47;7.47;;;4.00;;
34278;SDS011;20538;51.528;9.942;2023-07-02T00:07:13;8.38;;;5.18;;
34278;SDS011;20538;51.528;9.942;2023-07-02T00:09:42;6.07;;;4.20;;
34278;SDS011;20538;51.528;9.942;2023-07-02T00:12:07;5.45;;;4.95;;
34278;SDS011;20538;51.528;9.942;2023-07-02T00:14:33;7.60;;;4.60;;
34278;SDS011;20538;51.528;9.942;2023-07-02T00:16:59;6.25;;;4.75;;
34278;SDS011;20538;51.528;9.942;2023-07-02T00:19:25;7.65;;;4.68;;
34278;SDS011;20538;51.528;9.942;2023-07-02T00:21:50;5.30;;;4.53;;
34278;SDS011;20538;51.528;9.942;2023-07-02T00:24:18;6.05;;;4.63;;
34278;SDS011;20538;51.528;9.942;2023-07-02T00:26:44;5.72;;;4.72;;
34278;SDS011;20538;51.528;9.942;2023-07-02T00:29:09;7.63;;;5.20;;
34278;SDS011;20538;51.528;9.942;2023-07-02T00:31:35;7.03;;;5.20;;
34278;SDS011;20538;51.528;9.942;2023-07-02T00:34:01;6.53;;;5.10;;
34278;SDS011;20538;51.528;9.942;2023-07-02T00:36:27;16.05;;;6.20;;
34278;SDS011;20538;51.528;9.942;2023-07-02T00:38:53;7.10;;;5.00;;
34278;SDS011;20538;51.528;9.942;2023-07-02T00:41:19;7.50;;;4.90;;
34278;SDS011;20538;51.528;9.942;2023-07-02T00:43:45;5.43;;;4.88;;
34278;SDS011;20538;51.528;9.942;2023-07-02T00:46:11;7.18;;;5.32;;
34278;SDS011;20538;51.528;9.942;2023-07-02T00:48:43;6.47;;;5.28;;
34278;SDS011;20538;51.528;9.942;2023-07-02T00:51:10;6.45;;;5.32;;
34278;SDS011;20538;51.528;9.942;2023-07-02T00:53:39;6.88;;;5.10;;
34278;SDS011;20538;51.528;9.942;2023-07-02T00:56:05;7.15;;;5.57;;
34278;SDS011;20538;51.528;9.942;2023-07-02T00:58:30;9.40;;;5.28;;
34278;SDS011;20538;51.528;9.942;2023-07-02T01:00:58;7.45;;;5.32;;
34278;SDS011;20538;51.528;9.942;2023-07-02T01:03:24;8.30;;;4.95;;
34278;SDS011;20538;51.528;9.942;2023-07-02T01:05:49;6.50;;;5.20;;
34278;SDS011;20538;51.528;9.942;2023-07-02T01:08:15;7.50;;;5.43;;
34278;SDS011;20538;51.528;9.942;2023-07-02T01:10:41;7.00;;;5.20;;
34278;SDS011;20538;51.528;9.942;2023-07-02T01:13:12;8.65;;;5.75;;
34278;SDS011;20538;51.528;9.942;2023-07-02T01:15:42;8.85;;;6.38;;
34278;SDS011;20538;51.528;9.942;2023-07-02T01:18:08;10.18;;;5.93;;
34278;SDS011;20538;51.528;9.942;2023-07-02T01:20:37;7.78;;;6.13;;
34278;SDS011;20538;51.528;9.942;2023-07-02T01:23:03;9.90;;;6.25;;
34278;SDS011;20538;51.528;9.942;2023-07-02T01:25:29;9.73;;;6.03;;
34278;SDS011;20538;51.528;9.942;2023-07-02T01:27:55;10.63;;;6.28;;
34278;SDS011;20538;51.528;9.942;2023-07-02T01:30:23;8.73;;;6.22;;
34278;SDS011;20538;51.528;9.942;2023-07-02T01:32:50;11.15;;;7.72;;
34278;SDS011;20538;51.528;9.942;2023-07-02T01:35:15;9.35;;;7.80;;
34278;SDS011;20538;51.528;9.942;2023-07-02T01:37:41;10.30;;;8.07;;
34278;SDS011;20538;51.528;9.942;2023-07-02T01:40:07;12.07;;;8.50;;
34278;SDS011;20538;51.528;9.942;2023-07-02T01:42:35;11.85;;;9.80;;
34278;SDS011;20538;51.528;9.942;2023-07-02T01:45:01;13.48;;;10.30;;
34278;SDS011;20538;51.528;9.942;2023-07-02T01:47:27;14.75;;;10.18;;
34278;SDS011;20538;51.528;9.942;2023-07-02T01:49:53;15.80;;;10.70;;
34278;SDS011;20538;51.528;9.942;2023-07-02T01:52:19;14.90;;;10.85;;
34278;SDS011;20538;51.528;9.942;2023-07-02T01:54:45;14.93;;;11.05;;
34278;SDS011;20538;51.528;9.942;2023-07-02T01:57:11;14.50;;;11.48;;
34278;SDS011;20538;51.528;9.942;2023-07-02T01:59:36;21.00;;;11.63;;
34278;SDS011;20538;51.528;9.942;2023-07-02T02:02:02;16.60;;;11.18;;
34278;SDS011;20538;51.528;9.942;2023-07-02T02:04:28;17.33;;;11.65;;
34278;SDS011;20538;51.528;9.942;2023-07-02T02:06:53;15.70;;;12.02;;
34278;SDS011;20538;51.528;9.942;2023-07-02T02:09:19;15.40;;;11.98;;
34278;SDS011;20538;51.528;9.942;2023-07-02T02:11:49;14.30;;;10.48;;
34278;SDS011;20538;51.528;9.942;2023-07-02T02:14:15;17.05;;;11.32;;
34278;SDS011;20538;51.528;9.942;2023-07-02T02:16:41;12.52;;;10.93;;
34278;SDS011;20538;51.528;9.942;2023-07-02T02:19:10;15.05;;;11.93;;
34278;SDS011;20538;51.528;9.942;2023-07-02T02:21:36;16.35;;;11.25;;
34278;SDS011;20538;51.528;9.942;2023-07-02T02:24:01;13.80;;;10.93;;
34278;SDS011;20538;51.528;9.942;2023-07-02T02:26:27;15.55;;;11.55;;
34278;SDS011;20538;51.528;9.942;2023-07-02T02:28:53;13.25;;;11.38;;
34278;SDS011;20538;51.528;9.942;2023-07-02T02:31:18;17.10;;;11.48;;
34278;SDS011;20538;51.528;9.942;2023-07-02T02:33:44;14.00;;;11.00;;
34278;SDS011;20538;51.528;9.942;2023-07-02T02:36:10;17.17;;;11.77;;
34278;SDS011;20538;51.528;9.942;2023-07-02T02:38:35;17.65;;;10.70;;
34278;SDS011;20538;51.528;9.942;2023-07-02T02:41:02;17.50;;;11.13;;
34278;SDS011;20538;51.528;9.942;2023-07-02T02:43:28;16.60;;;11.07;;
34278;SDS011;20538;51.528;9.942;2023-07-02T02:45:54;16.80;;;10.48;;
34278;SDS011;20538;51.528;9.942;2023-07-02T02:48:20;17.40;;;10.40;;
34278;SDS011;20538;51.528;9.942;2023-07-02T02:50:48;12.85;;;9.98;;
34278;SDS011;20538;51.528;9.942;2023-07-02T02:53:14;13.95;;;10.50;;
34278;SDS011;20538;51.528;9.942;2023-07-02T02:55:39;13.98;;;10.82;;
34278;SDS011;20538;51.528;9.942;2023-07-02T02:58:05;16.13;;;11.82;;
34278;SDS011;20538;51.528;9.942;2023-07-02T03:00:30;16.35;;;11.05;;
34278;SDS011;20538;51.528;9.942;2023-07-02T03:02:56;18.33;;;12.10;;
34278;SDS011;20538;51.528;9.942;2023-07-02T03:05:22;13.38;;;10.60;;
34278;SDS011;20538;51.528;9.942;2023-07-02T03:07:49;13.93;;;11.85;;
34278;SDS011;20538;51.528;9.942;2023-07-02T03:10:15;14.80;;;11.15;;
34278;SDS011;20538;51.528;9.942;2023-07-02T03:12:40;15.20;;;11.07;;
34278;SDS011;20538;51.528;9.942;2023-07-02T03:15:06;17.13;;;11.07;;
34278;SDS011;20538;51.528;9.942;2023-07-02T03:17:33;14.73;;;10.38;;
34278;SDS011;20538;51.528;9.942;2023-07-02T03:19:58;12.63;;;10.48;;
34278;SDS011;20538;51.528;9.942;2023-07-02T03:22:24;15.18;;;11.07;;
34278;SDS011;20538;51.528;9.942;2023-07-02T03:24:49;16.23;;;11.02;;
34278;SDS011;20538;51.528;9.942;2023-07-02T03:27:15;12.50;;;10.93;;
34278;SDS011;20538;51.528;9.942;2023-07-02T03:29:41;12.40;;;9.95;;
34278;SDS011;20538;51.528;9.942;2023-07-02T03:32:06;19.80;;;10.95;;
34278;SDS011;20538;51.528;9.942;2023-07-02T03:34:32;12.85;;;9.90;;
34278;SDS011;20538;51.528;9.942;2023-07-02T03:36:58;13.52;;;9.25;;
34278;SDS011;20538;51.528;9.942;2023-07-02T03:39:23;11.63;;;9.15;;
34278;SDS011;20538;51.528;9.942;2023-07-02T03:41:49;18.20;;;10.13;;
34278;SDS011;20538;51.528;9.942;2023-07-02T03:44:15;17.58;;;9.35;;
34278;SDS011;20538;51.528;9.942;2023-07-02T03:46:40;14.57;;;9.75;;
34278;SDS011;20538;51.528;9.942;2023-07-02T03:49:06;15.30;;;9.30;;
34278;SDS011;20538;51.528;9.942;2023-07-02T03:51:31;12.35;;;8.00;;
34278;SDS011;20538;51.528;9.942;2023-07-02T03:53:58;14.90;;;8.60;;
34278;SDS011;20538;51.528;9.942;2023-07-02T03:56:24;14.18;;;8.65;;
34278;SDS011;20538;51.528;9.942;2023-07-02T03:58:50;15.95;;;8.25;;
34278;SDS011;20538;51.528;9.942;2023-07-02T04:01:15;12.23;;;8.27;;
34278;SDS011;20538;51.528;9.942;2023-07-02T04:03:51;10.02;;;6.65;;
34278;SDS011;20538;51.528;9.942;2023-07-02T04:06:18;11.38;;;6.65;;
34278;SDS011;20538;51.528;9.942;2023-07-02T04:08:43;11.98;;;6.15;;
34278;SDS011;20538;51.528;9.942;2023-07-02T04:11:10;10.55;;;6.75;;
34278;SDS011;20538;51.528;9.942;2023-07-02T04:13:36;8.60;;;5.97;;
34278;SDS011;20538;51.528;9.942;2023-07-02T04:16:02;9.05;;;6.47;;
34278;SDS011;20538;51.528;9.942;2023-07-02T04:18:28;7.68;;;5.47;;
34278;SDS011;20538;51.528;9.942;2023-07-02T04:20:54;10.25;;;5.38;;
34278;SDS011;20538;51.528;9.942;2023-07-02T04:23:20;5.75;;;4.70;;
34278;SDS011;20538;51.528;9.942;2023-07-02T04:25:46;6.50;;;5.13;;
34278;SDS011;20538;51.528;9.942;2023-07-02T04:28:11;6.93;;;4.80;;
34278;SDS011;20538;51.528;9.942;2023-07-02T04:30:37;6.25;;;4.63;;
34278;SDS011;20538;51.528;9.942;2023-07-02T04:33:02;7.22;;;4.70;;
34278;SDS011;20538;51.528;9.942;2023-07-02T04:35:30;6.15;;;4.68;;
34278;SDS011;20538;51.528;9.942;2023-07-02T04:37:56;8.60;;;4.57;;
34278;SDS011;20538;51.528;9.942;2023-07-02T04:40:22;9.85;;;4.40;;
34278;SDS011;20538;51.528;9.942;2023-07-02T04:42:48;6.47;;;4.30;;
34278;SDS011;20538;51.528;9.942;2023-07-02T04:45:14;10.70;;;4.78;;
34278;SDS011;20538;51.528;9.942;2023-07-02T04:47:43;4.70;;;3.65;;
34278;SDS011;20538;51.528;9.942;2023-07-02T04:50:09;6.72;;;3.60;;
34278;SDS011;20538;51.528;9.942;2023-07-02T04:52:36;3.88;;;3.17;;
34278;SDS011;20538;51.528;9.942;2023-07-02T04:55:02;7.63;;;3.72;;
34278;SDS011;20538;51.528;9.942;2023-07-02T04:57:29;7.30;;;3.38;;
34278;SDS011;20538;51.528;9.942;2023-07-02T04:59:54;7.40;;;3.67;;
34278;SDS011;20538;51.528;9.942;2023-07-02T05:02:20;4.97;;;3.08;;
34278;SDS011;20538;51.528;9.942;2023-07-02T05:04:45;5.45;;;3.10;;
34278;SDS011;20538;51.528;9.942;2023-07-02T05:07:11;5.45;;;3.50;;
34278;SDS011;20538;51.528;9.942;2023-07-02T05:09:36;5.90;;;3.70;;
34278;SDS011;20538;51.528;9.942;2023-07-02T05:12:02;3.88;;;3.38;;
34278;SDS011;20538;51.528;9.942;2023-07-02T05:14:28;8.60;;;3.67;;
34278;SDS011;20538;51.528;9.942;2023-07-02T05:16:54;5.80;;;3.60;;
34278;SDS011;20538;51.528;9.942;2023-07-02T05:19:19;9.00;;;4.18;;
34278;SDS011;20538;51.528;9.942;2023-07-02T05:21:45;6.45;;;4.30;;
34278;SDS011;20538;51.528;9.942;2023-07-02T05:24:11;7.40;;;4.55;;
34278;SDS011;20538;51.528;9.942;2023-07-02T05:26:36;9.38;;;4.68;;
34278;SDS011;20538;51.528;9.942;2023-07-02T05:29:02;5.85;;;4.60;;
34278;SDS011;20538;51.528;9.942;2023-07-02T05:31:28;6.85;;;4.57;;
34278;SDS011;20538;51.528;9.942;2023-07-02T05:33:53;6.85;;;4.68;;
34278;SDS011;20538;51.528;9.942;2023-07-02T05:36:19;7.22;;;4.28;;
34278;SDS011;20538;51.528;9.942;2023-07-02T05:38:45;6.75;;;3.50;;
34278;SDS011;20538;51.528;9.942;2023-07-02T05:41:17;5.07;;;3.47;;
34278;SDS011;20538;51.528;9.942;2023-07-02T05:43:46;4.05;;;2.92;;
34278;SDS011;20538;51.528;9.942;2023-07-02T05:46:12;4.95;;;3.20;;
34278;SDS011;20538;51.528;9.942;2023-07-02T05:48:39;3.05;;;2.75;;
34278;SDS011;20538;51.528;9.942;2023-07-02T05:51:05;7.70;;;3.53;;
34278;SDS011;20538;51.528;9.942;2023-07-02T05:53:32;6.80;;;3.55;;
34278;SDS011;20538;51.528;9.942;2023-07-02T05:55:57;6.07;;;3.70;;
34278;SDS011;20538;51.528;9.942;2023-07-02T05:58:23;5.82;;;3.50;;
34278;SDS011;20538;51.528;9.942;2023-07-02T06:00:49;6.35;;;4.20;;
34278;SDS011;20538;51.528;9.942;2023-07-02T06:03:15;4.43;;;3.45;;
34278;SDS011;20538;51.528;9.942;2023-07-02T06:05:45;5.47;;;4.00;;
34278;SDS011;20538;51.528;9.942;2023-07-02T06:08:15;8.00;;;4.10;;
34278;SDS011;20538;51.528;9.942;2023-07-02T06:10:41;8.55;;;4.57;;
34278;SDS011;20538;51.528;9.942;2023-07-02T06:13:07;10.77;;;5.45;;
34278;SDS011;20538;51.528;9.942;2023-07-02T06:15:32;5.55;;;4.53;;
34278;SDS011;20538;51.528;9.942;2023-07-02T06:17:58;6.22;;;4.18;;
34278;SDS011;20538;51.528;9.942;2023-07-02T06:20:24;6.68;;;4.78;;
34278;SDS011;20538;51.528;9.942;2023-07-02T06:22:49;5.57;;;4.65;;
34278;SDS011;20538;51.528;9.942;2023-07-02T06:25:15;9.93;;;4.72;;
34278;SDS011;20538;51.528;9.942;2023-07-02T06:27:40;5.20;;;4.35;;
34278;SDS011;20538;51.528;9.942;2023-07-02T06:30:06;9.85;;;4.65;;
34278;SDS011;20538;51.528;9.942;2023-07-02T06:32:32;7.95;;;4.72;;
34278;SDS011;20538;51.528;9.942;2023-07-02T06:34:58;6.38;;;4.50;;
34278;SDS011;20538;51.528;9.942;2023-07-02T06:37:23;8.43;;;4.55;;
34278;SDS011;20538;51.528;9.942;2023-07-02T06:39:49;7.38;;;5.20;;
34278;SDS011;20538;51.528;9.942;2023-07-02T06:42:15;9.77;;;4.50;;
34278;SDS011;20538;51.528;9.942;2023-07-02T06:44:40;7.55;;;4.80;;
34278;SDS011;20538;51.528;9.942;2023-07-02T06:47:06;10.68;;;4.70;;
34278;SDS011;20538;51.528;9.942;2023-07-02T06:49:32;10.77;;;4.88;;
34278;SDS011;20538;51.528;9.942;2023-07-02T06:51:58;11.23;;;5.15;;
34278;SDS011;20538;51.528;9.942;2023-07-02T06:54:25;9.38;;;5.15;;
34278;SDS011;20538;51.528;9.942;2023-07-02T06:56:51;9.20;;;5.28;;
34278;SDS011;20538;51.528;9.942;2023-07-02T06:59:20;8.95;;;5.20;;
34278;SDS011;20538;51.528;9.942;2023-07-02T07:01:46;9.95;;;5.63;;
34278;SDS011;20538;51.528;9.942;2023-07-02T07:04:12;10.82;;;5.10;;
34278;SDS011;20538;51.528;9.942;2023-07-02T07:06:37;10.07;;;5.45;;
34278;SDS011;20538;51.528;9.942;2023-07-02T07:09:03;8.00;;;5.15;;
34278;SDS011;20538;51.528;9.942;2023-07-02T07:11:29;12.35;;;6.05;;
34278;SDS011;20538;51.528;9.942;2023-07-02T07:13:54;11.80;;;6.03;;
34278;SDS011;20538;51.528;9.942;2023-07-02T07:16:20;11.05;;;6.50;;
34278;SDS011;20538;51.528;9.942;2023-07-02T07:18:46;19.60;;;6.82;;
34278;SDS011;20538;51.528;9.942;2023-07-02T07:21:12;12.10;;;6.93;;
34278;SDS011;20538;51.528;9.942;2023-07-02T07:23:38;15.60;;;7.30;;
34278;SDS011;20538;51.528;9.942;2023-07-02T07:26:04;15.43;;;7.82;;
34278;SDS011;20538;51.528;9.942;2023-07-02T07:28:30;18.77;;;8.30;;
34278;SDS011;20538;51.528;9.942;2023-07-02T07:30:56;15.73;;;8.00;;
34278;SDS011;20538;51.528;9.942;2023-07-02T07:33:22;19.92;;;7.97;;
34278;SDS011;20538;51.528;9.942;2023-07-02T07:35:47;14.15;;;7.40;;
34278;SDS011;20538;51.528;9.942;2023-07-02T07:38:13;16.00;;;8.90;;
34278;SDS011;20538;51.528;9.942;2023-07-02T07:40:39;17.75;;;7.97;;
34278;SDS011;20538;51.528;9.942;2023-07-02T07:43:05;18.58;;;8.93;;
34278;SDS011;20538;51.528;9.942;2023-07-02T07:45:31;19.50;;;8.68;;
34278;SDS011;20538;51.528;9.942;2023-07-02T07:47:58;18.88;;;8.93;;
34278;SDS011;20538;51.528;9.942;2023-07-02T07:50:23;20.90;;;8.85;;
34278;SDS011;20538;51.528;9.942;2023-07-02T07:52:49;23.85;;;9.23;;
34278;SDS011;20538;51.528;9.942;2023-07-02T07:55:16;22.80;;;10.10;;
34278;SDS011;20538;51.528;9.942;2023-07-02T07:57:44;25.20;;;9.50;;
34278;SDS011;20538;51.528;9.942;2023-07-02T08:00:10;17.98;;;8.45;;
34278;SDS011;20538;51.528;9.942;2023-07-02T08:02:36;19.35;;;9.10;;
34278;SDS011;20538;51.528;9.942;2023-07-02T08:05:02;21.02;;;9.43;;
34278;SDS011;20538;51.528;9.942;2023-07-02T08:07:28;22.02;;;10.00;;
34278;SDS011;20538;51.528;9.942;2023-07-02T08:09:55;30.92;;;10.57;;
34278;SDS011;20538;51.528;9.942;2023-07-02T08:12:21;19.27;;;8.73;;
34278;SDS011;20538;51.528;9.942;2023-07-02T08:14:46;27.25;;;8.68;;
34278;SDS011;20538;51.528;9.942;2023-07-02T08:17:12;22.27;;;9.13;;
34278;SDS011;20538;51.528;9.942;2023-07-02T08:19:38;24.95;;;8.27;;
34278;SDS011;20538;51.528;9.942;2023-07-02T08:22:03;22.38;;;8.68;;
34278;SDS011;20538;51.528;9.942;2023-07-02T08:24:29;18.52;;;8.35;;
34278;SDS011;20538;51.528;9.942;2023-07-02T08:26:56;22.80;;;8.82;;
34278;SDS011;20538;51.528;9.942;2023-07-02T08:29:23;20.05;;;8.90;;
34278;SDS011;20538;51.528;9.942;2023-07-02T08:31:48;21.23;;;9.63;;
34278;SDS011;20538;51.528;9.942;2023-07-02T08:34:14;23.02;;;8.43;;
34278;SDS011;20538;51.528;9.942;2023-07-02T08:36:39;19.15;;;8.68;;
34278;SDS011;20538;51.528;9.942;2023-07-02T08:39:05;25.08;;;8.80;;
34278;SDS011;20538;51.528;9.942;2023-07-02T08:41:40;21.50;;;9.27;;
34278;SDS011;20538;51.528;9.942;2023-07-02T08:44:08;24.75;;;9.32;;
34278;SDS011;20538;51.528;9.942;2023-07-02T08:46:34;19.85;;;8.48;;
34278;SDS011;20538;51.528;9.942;2023-07-02T08:49:00;17.85;;;8.30;;
34278;SDS011;20538;51.528;9.942;2023-07-02T08:51:26;21.08;;;9.45;;
34278;SDS011;20538;51.528;9.942;2023-07-02T08:53:51;24.48;;;9.25;;
34278;SDS011;20538;51.528;9.942;2023-07-02T08:56:17;20.38;;;8.05;;
34278;SDS011;20538;51.528;9.942;2023-07-02T08:58:42;23.00;;;10.02;;
34278;SDS011;20538;51.528;9.942;2023-07-02T09:01:11;23.40;;;9.13;;
34278;SDS011;20538;51.528;9.942;2023-07-02T09:03:37;19.83;;;8.95;;
34278;SDS011;20538;51.528;9.942;2023-07-02T09:06:04;16.85;;;9.02;;
34278;SDS011;20538;51.528;9.942;2023-07-02T09:08:31;20.33;;;8.70;;
34278;SDS011;20538;51.528;9.942;2023-07-02T09:11:09;18.10;;;8.77;;
34278;SDS011;20538;51.528;9.942;2023-07-02T09:13:43;19.27;;;9.15;;
34278;SDS011;20538;51.528;9.942;2023-07-02T09:16:20;19.05;;;9.07;;
34278;SDS011;20538;51.528;9.942;2023-07-02T09:18:54;20.55;;;9.50;;
34278;SDS011;20538;51.528;9.942;2023-07-02T09:21:41;22.50;;;8.73;;
34278;SDS011;20538;51.528;9.942;2023-07-02T09:24:15;28.60;;;10.68;;
34278;SDS011;20538;51.528;9.942;2023-07-02T09:26:48;22.15;;;9.98;;
34278;SDS011;20538;51.528;9.942;2023-07-02T09:29:22;20.10;;;9.15;;
34278;SDS011;20538;51.528;9.942;2023-07-02T09:32:04;22.92;;;9.98;;
34278;SDS011;20538;51.528;9.942;2023-07-02T09:34:34;25.10;;;10.30;;
34278;SDS011;20538;51.528;9.942;2023-07-02T09:37:01;26.02;;;10.38;;
34278;SDS011;20538;51.528;9.942;2023-07-02T09:39:28;20.60;;;9.80;;
34278;SDS011;20538;51.528;9.942;2023-07-02T09:41:56;24.30;;;10.60;;
34278;SDS011;20538;51.528;9.942;2023-07-02T09:44:29;24.77;;;10.57;;
34278;SDS011;20538;51.528;9.942;2023-07-02T09:49:32;22.60;;;10.85;;
34278;SDS011;20538;51.528;9.942;2023-07-02T09:52:00;21.15;;;10.57;;
34278;SDS011;20538;51.528;9.942;2023-07-02T09:54:27;18.52;;;9.95;;
34278;SDS011;20538;51.528;9.942;2023-07-02T09:56:53;25.23;;;10.30;;
34278;SDS011;20538;51.528;9.942;2023-07-02T09:59:20;21.85;;;10.95;;
34278;SDS011;20538;51.528;9.942;2023-07-02T10:01:46;24.55;;;10.50;;
34278;SDS011;20538;51.528;9.942;2023-07-02T10:04:12;21.63;;;10.27;;
34278;SDS011;20538;51.528;9.942;2023-07-02T10:06:48;20.35;;;10.57;;
34278;SDS011;20538;51.528;9.942;2023-07-02T10:09:17;25.23;;;10.95;;
34278;SDS011;20538;51.528;9.942;2023-07-02T10:11:43;22.40;;;10.40;;
34278;SDS011;20538;51.528;9.942;2023-07-02T10:14:09;24.33;;;11.52;;
34278;SDS011;20538;51.528;9.942;2023-07-02T10:16:51;23.42;;;11.25;;
34278;SDS011;20538;51.528;9.942;2023-07-02T10:19:18;19.90;;;10.27;;
34278;SDS011;20538;51.528;9.942;2023-07-02T10:21:45;21.70;;;9.70;;
34278;SDS011;20538;51.528;9.942;2023-07-02T10:24:15;20.88;;;10.32;;
34278;SDS011;20538;51.528;9.942;2023-07-02T10:26:54;26.73;;;10.90;;
34278;SDS011;20538;51.528;9.942;2023-07-02T10:29:22;24.08;;;10.13;;
34278;SDS011;20538;51.528;9.942;2023-07-02T10:31:50;23.33;;;9.95;;
34278;SDS011;20538;51.528;9.942;2023-07-02T10:34:16;24.05;;;10.63;;
34278;SDS011;20538;51.528;9.942;2023-07-02T10:36:56;20.17;;;10.60;;
34278;SDS011;20538;51.528;9.942;2023-07-02T10:39:22;26.77;;;10.82;;
34278;SDS011;20538;51.528;9.942;2023-07-02T10:41:48;22.85;;;11.05;;
34278;SDS011;20538;51.528;9.942;2023-07-02T10:44:14;24.90;;;11.52;;
34278;SDS011;20538;51.528;9.942;2023-07-02T10:46:47;24.15;;;11.10;;
34278;SDS011;20538;51.528;9.942;2023-07-02T10:49:17;26.05;;;11.52;;
34278;SDS011;20538;51.528;9.942;2023-07-02T10:51:45;21.08;;;11.48;;
34278;SDS011;20538;51.528;9.942;2023-07-02T10:57:05;22.15;;;11.10;;
34278;SDS011;20538;51.528;9.942;2023-07-02T10:59:32;23.10;;;10.70;;
34278;SDS011;20538;51.528;9.942;2023-07-02T11:01:58;28.77;;;11.65;;
34278;SDS011;20538;51.528;9.942;2023-07-02T11:04:27;21.45;;;11.35;;
34278;SDS011;20538;51.528;9.942;2023-07-02T11:06:53;22.50;;;11.13;;
34278;SDS011;20538;51.528;9.942;2023-07-02T11:09:19;23.30;;;10.77;;
34278;SDS011;20538;51.528;9.942;2023-07-02T11:11:54;28.42;;;12.18;;
34278;SDS011;20538;51.528;9.942;2023-07-02T11:14:30;27.45;;;12.23;;
34278;SDS011;20538;51.528;9.942;2023-07-02T11:16:58;29.90;;;12.32;;
34278;SDS011;20538;51.528;9.942;2023-07-02T11:19:25;26.73;;;11.02;;
34278;SDS011;20538;51.528;9.942;2023-07-02T11:21:54;24.02;;;11.57;;
34278;SDS011;20538;51.528;9.942;2023-07-02T11:26:57;24.52;;;12.32;;
34278;SDS011;20538;51.528;9.942;2023-07-02T11:29:24;28.80;;;12.50;;
34278;SDS011;20538;51.528;9.942;2023-07-02T11:31:50;27.73;;;11.88;;
34278;SDS011;20538;51.528;9.942;2023-07-02T11:34:16;26.85;;;12.25;;
34278;SDS011;20538;51.528;9.942;2023-07-02T11:36:43;21.58;;;11.18;;
34278;SDS011;20538;51.528;9.942;2023-07-02T11:39:09;25.95;;;11.70;;
34278;SDS011;20538;51.528;9.942;2023-07-02T11:41:42;21.67;;;11.02;;
34278;SDS011;20538;51.528;9.942;2023-07-02T11:44:10;24.15;;;10.63;;
34278;SDS011;20538;51.528;9.942;2023-07-02T11:46:36;24.33;;;11.43;;
34278;SDS011;20538;51.528;9.942;2023-07-02T11:49:02;21.42;;;9.95;;
34278;SDS011;20538;51.528;9.942;2023-07-02T11:51:38;27.67;;;12.20;;
34278;SDS011;20538;51.528;9.942;2023-07-02T11:54:04;23.92;;;11.20;;
34278;SDS011;20538;51.528;9.942;2023-07-02T11:56:31;23.17;;;11.35;;
34278;SDS011;20538;51.528;9.942;2023-07-02T11:58:57;27.65;;;11.27;;
34278;SDS011;20538;51.528;9.942;2023-07-02T12:01:22;22.20;;;11.63;;
34278;SDS011;20538;51.528;9.942;2023-07-02T12:03:48;29.08;;;11.00;;
34278;SDS011;20538;51.528;9.942;2023-07-02T12:06:14;27.30;;;11.57;;
34278;SDS011;20538;51.528;9.942;2023-07-02T12:08:39;26.20;;;10.85;;
34278;SDS011;20538;51.528;9.942;2023-07-02T12:11:05;26.15;;;10.75;;
34278;SDS011;20538;51.528;9.942;2023-07-02T12:13:31;24.42;;;11.48;;
34278;SDS011;20538;51.528;9.942;2023-07-02T12:15:56;31.38;;;12.00;;
34278;SDS011;20538;51.528;9.942;2023-07-02T12:18:22;21.42;;;11.05;;
34278;SDS011;20538;51.528;9.942;2023-07-02T12:20:47;23.83;;;10.90;;
34278;SDS011;20538;51.528;9.942;2023-07-02T12:23:13;24.30;;;10.65;;
34278;SDS011;20538;51.528;9.942;2023-07-02T12:25:39;27.40;;;11.57;;
34278;SDS011;20538;51.528;9.942;2023-07-02T12:28:04;22.88;;;11.00;;
34278;SDS011;20538;51.528;9.942;2023-07-02T12:30:30;23.40;;;11.10;;
34278;SDS011;20538;51.528;9.942;2023-07-02T12:32:56;22.65;;;11.95;;
34278;SDS011;20538;51.528;9.942;2023-07-02T12:35:22;26.35;;;12.20;;
34278;SDS011;20538;51.528;9.942;2023-07-02T12:37:50;24.70;;;11.38;;
34278;SDS011;20538;51.528;9.942;2023-07-02T12:40:17;28.58;;;11.88;;
34278;SDS011;20538;51.528;9.942;2023-07-02T12:42:44;25.10;;;11.68;;
34278;SDS011;20538;51.528;9.942;2023-07-02T12:45:11;22.63;;;11.80;;
34278;SDS011;20538;51.528;9.942;2023-07-02T12:47:38;22.10;;;11.23;;
34278;SDS011;20538;51.528;9.942;2023-07-02T12:50:04;24.98;;;11.60;;
34278;SDS011;20538;51.528;9.942;2023-07-02T12:52:31;24.00;;;11.48;;
34278;SDS011;20538;51.528;9.942;2023-07-02T12:54:57;22.15;;;11.25;;
34278;SDS011;20538;51.528;9.942;2023-07-02T12:57:23;21.80;;;11.02;;
34278;SDS011;20538;51.528;9.942;2023-07-02T12:59:49;27.05;;;11.57;;
34278;SDS011;20538;51.528;9.942;2023-07-02T13:02:15;28.48;;;11.55;;
34278;SDS011;20538;51.528;9.942;2023-07-02T13:04:40;23.83;;;10.90;;
34278;SDS011;20538;51.528;9.942;2023-07-02T13:07:06;24.95;;;10.82;;
34278;SDS011;20538;51.528;9.942;2023-07-02T13:09:31;26.67;;;11.38;;
34278;SDS011;20538;51.528;9.942;2023-07-02T13:11:57;30.55;;;11.10;;
34278;SDS011;20538;51.528;9.942;2023-07-02T13:14:22;30.60;;;11.70;;
34278;SDS011;20538;51.528;9.942;2023-07-02T13:16:48;28.35;;;11.57;;
34278;SDS011;20538;51.528;9.942;2023-07-02T13:19:14;25.92;;;11.75;;
34278;SDS011;20538;51.528;9.942;2023-07-02T13:21:40;23.55;;;11.93;;
34278;SDS011;20538;51.528;9.942;2023-07-02T13:24:06;27.92;;;12.65;;
34278;SDS011;20538;51.528;9.942;2023-07-02T13:26:31;27.85;;;11.13;;
34278;SDS011;20538;51.528;9.942;2023-07-02T13:28:57;37.42;;;12.05;;
34278;SDS011;20538;51.528;9.942;2023-07-02T13:31:23;24.60;;;11.18;;
34278;SDS011;20538;51.528;9.942;2023-07-02T13:33:48;21.98;;;10.43;;
34278;SDS011;20538;51.528;9.942;2023-07-02T13:36:15;27.10;;;11.45;;
34278;SDS011;20538;51.528;9.942;2023-07-02T13:38:41;19.23;;;10.27;;
34278;SDS011;20538;51.528;9.942;2023-07-02T13:41:07;22.25;;;10.93;;
34278;SDS011;20538;51.528;9.942;2023-07-02T13:43:33;24.65;;;10.88;;
34278;SDS011;20538;51.528;9.942;2023-07-02T13:45:58;21.60;;;10.18;;
34278;SDS011;20538;51.528;9.942;2023-07-02T13:48:24;23.35;;;11.35;;
34278;SDS011;20538;51.528;9.942;2023-07-02T13:50:50;25.13;;;11.43;;
34278;SDS011;20538;51.528;9.942;2023-07-02T13:53:15;23.10;;;11.20;;
34278;SDS011;20538;51.528;9.942;2023-07-02T13:55:41;27.08;;;11.82;;
34278;SDS011;20538;51.528;9.942;2023-07-02T13:58:07;23.10;;;11.07;;
34278;SDS011;20538;51.528;9.942;2023-07-02T14:00:32;27.75;;;12.25;;
34278;SDS011;20538;51.528;9.942;2023-07-02T14:02:58;27.73;;;12.65;;
34278;SDS011;20538;51.528;9.942;2023-07-02T14:05:24;26.10;;;12.45;;
34278;SDS011;20538;51.528;9.942;2023-07-02T14:07:49;30.70;;;12.15;;
34278;SDS011;20538;51.528;9.942;2023-07-02T14:10:15;27.15;;;11.75;;
34278;SDS011;20538;51.528;9.942;2023-07-02T14:12:41;25.08;;;11.40;;
34278;SDS011;20538;51.528;9.942;2023-07-02T14:15:07;24.02;;;11.55;;
34278;SDS011;20538;51.528;9.942;2023-07-02T14:17:34;27.67;;;12.10;;
34278;SDS011;20538;51.528;9.942;2023-07-02T14:20:00;21.13;;;10.55;;
34278;SDS011;20538;51.528;9.942;2023-07-02T14:22:27;26.00;;;12.27;;
34278;SDS011;20538;51.528;9.942;2023-07-02T14:24:53;26.02;;;11.55;;
34278;SDS011;20538;51.528;9.942;2023-07-02T14:27:18;25.05;;;10.98;;
34278;SDS011;20538;51.528;9.942;2023-07-02T14:29:44;28.85;;;12.65;;
34278;SDS011;20538;51.528;9.942;2023-07-02T14:32:12;22.95;;;11.35;;
34278;SDS011;20538;51.528;9.942;2023-07-02T14:34:38;29.88;;;12.90;;
34278;SDS011;20538;51.528;9.942;2023-07-02T14:37:04;23.67;;;11.68;;